Time;durP1;ratioP1;P1;durP2;ratioP2;P2;SDS_P1;SDS_P2;PMS_P1;PMS_P2;Temp;Humidity;BMP_temperature;BMP_pressure;BME280_temperature;BME280_humidity;BME280_pressure;Samples;Min_cycle;Max_cycle;Signal;HPM_P1;HPM_P2
2021/05/28 04:35:29;;;;;;;5.85;5.07;;;;;;;;;;5093111;28;20108;-67
2021/05/28 04:37:55;;;;;;;6.35;5.03;;;;;;;;;;5092875;28;20506;-67
2021/05/28 04:40:21;;;;;;;7.55;4.82;;;;;;;;;;5092731;28;20035;-69
2021/05/28 04:42:46;;;;;;;8.82;6.35;;;;;;;;;;5092863;28;20401;-68
2021/05/28 04:45:13;;;;;;;10.25;7.00;;;;;;;;;;5093505;28;20027;-68
2021/05/28 04:47:38;;;;;;;49.55;20.92;;;;;;;;;;5096744;28;20026;-69
2021/05/28 04:50:04;;;;;;;56.20;24.88;;;;;;;;;;5096956;28;20543;-69
2021/05/28 04:52:29;;;;;;;23.08;11.50;;;;;;;;;;5097791;28;20012;-68
2021/05/28 04:54:55;;;;;;;11.50;7.38;;;;;;;;;;5097639;28;20024;-68
2021/05/28 04:57:20;;;;;;;6.95;5.78;;;;;;;;;;5097247;28;20028;-69
2021/05/28 04:59:46;;;;;;;6.05;4.60;;;;;;;;;;5097186;28;20036;-67
2021/05/28 05:02:11;;;;;;;5.03;4.57;;;;;;;;;;5096408;28;20027;-66
2021/05/28 05:04:37;;;;;;;4.68;4.05;;;;;;;;;;5096481;28;20043;-66
2021/05/28 05:07:02;;;;;;;7.35;4.00;;;;;;;;;;5096958;28;20359;-65
2021/05/28 05:09:28;;;;;;;4.05;3.65;;;;;;;;;;5097438;28;20114;-66
2021/05/28 05:11:54;;;;;;;3.70;3.13;;;;;;;;;;5097201;28;20041;-65
2021/05/28 05:14:19;;;;;;;4.22;3.10;;;;;;;;;;5095721;28;20039;-65
2021/05/28 05:16:45;;;;;;;3.80;3.50;;;;;;;;;;5078846;28;20024;-64
2021/05/28 05:19:11;;;;;;;4.35;3.70;;;;;;;;;;5095658;28;20490;-64
2021/05/28 05:21:36;;;;;;;4.45;3.55;;;;;;;;;;5097224;28;20070;-64
2021/05/28 05:24:02;;;;;;;3.40;3.20;;;;;;;;;;5096891;28;20035;-64
2021/05/28 05:26:27;;;;;;;3.13;2.80;;;;;;;;;;5096750;28;20024;-64
2021/05/28 05:28:53;;;;;;;3.38;2.40;;;;;;;;;;5096564;28;20024;-66
2021/05/28 05:31:18;;;;;;;3.65;2.28;;;;;;;;;;5096683;28;20106;-66
2021/05/28 05:33:44;;;;;;;2.33;2.22;;;;;;;;;;5096561;28;20023;-64
2021/05/28 05:36:09;;;;;;;2.22;2.10;;;;;;;;;;5096365;28;20459;-65
2021/05/28 05:38:35;;;;;;;1.83;1.73;;;;;;;;;;5096099;28;20123;-65
2021/05/28 05:41:01;;;;;;;2.05;1.95;;;;;;;;;;5096605;28;20035;-65
2021/05/28 05:43:26;;;;;;;1.92;1.83;;;;;;;;;;5096217;28;20024;-64
2021/05/28 05:45:51;;;;;;;1.95;1.85;;;;;;;;;;5096183;28;20524;-65
2021/05/28 05:48:17;;;;;;;2.40;2.20;;;;;;;;;;5096511;28;20097;-65
2021/05/28 05:50:43;;;;;;;1.88;1.77;;;;;;;;;;5096354;28;20028;-66
2021/05/28 05:53:08;;;;;;;1.70;1.60;;;;;;;;;;5096475;28;20452;-66
2021/05/28 05:55:34;;;;;;;1.45;1.35;;;;;;;;;;5096494;28;20032;-66
2021/05/28 05:57:59;;;;;;;1.75;1.65;;;;;;;;;;5094892;28;20031;-66
2021/05/28 06:00:25;;;;;;;1.30;1.23;;;;;;;;;;5096081;28;20035;-66
2021/05/28 06:02:50;;;;;;;1.55;1.45;;;;;;;;;;5096093;28;20401;-66
2021/05/28 06:05:18;;;;;;;1.40;1.30;;;;;;;;;;5096058;28;20024;-66
2021/05/28 06:07:43;;;;;;;1.60;1.50;;;;;;;;;;5095983;28;20024;-66
2021/05/28 06:10:10;;;;;;;1.80;1.70;;;;;;;;;;5077720;28;20410;-66
2021/05/28 06:12:35;;;;;;;1.20;1.20;;;;;;;;;;5095786;28;20118;-66
2021/05/28 06:15:00;;;;;;;1.08;1.08;;;;;;;;;;5095903;28;20036;-65
2021/05/28 06:17:26;;;;;;;1.33;1.25;;;;;;;;;;5095657;28;20024;-65
2021/05/28 06:19:52;;;;;;;1.33;1.23;;;;;;;;;;5095584;28;20046;-65
2021/05/28 06:22:21;;;;;;;2.13;1.30;;;;;;;;;;5095712;28;20016;-65
2021/05/28 06:24:50;;;;;;;1.50;1.40;;;;;;;;;;5094209;28;20122;-65
2021/05/28 06:27:15;;;;;;;2.60;1.75;;;;;;;;;;5095856;28;20370;-66
2021/05/28 06:29:41;;;;;;;1.35;1.08;;;;;;;;;;5096003;28;20043;-65
2021/05/28 06:32:07;;;;;;;1.00;1.00;;;;;;;;;;5095459;28;20485;-66
2021/05/28 06:34:32;;;;;;;1.05;1.05;;;;;;;;;;5095270;28;20043;-66
2021/05/28 06:36:59;;;;;;;1.50;1.40;;;;;;;;;;5095085;28;20095;-66
2021/05/28 06:39:25;;;;;;;1.60;1.50;;;;;;;;;;5094824;28;20048;-66
2021/05/28 06:41:50;;;;;;;1.50;1.40;;;;;;;;;;5095083;28;20035;-66
2021/05/28 06:44:16;;;;;;;1.55;1.45;;;;;;;;;;5095021;28;20016;-65
2021/05/28 06:46:41;;;;;;;1.40;1.30;;;;;;;;;;5094879;28;20035;-65
2021/05/28 06:49:07;;;;;;;1.25;1.15;;;;;;;;;;5092945;28;20413;-66
2021/05/28 06:51:32;;;;;;;1.73;1.30;;;;;;;;;;5092400;28;20047;-66
2021/05/28 06:53:58;;;;;;;1.30;1.20;;;;;;;;;;5093193;28;20024;-66
2021/05/28 06:56:23;;;;;;;1.17;1.05;;;;;;;;;;5092997;28;20028;-65
2021/05/28 06:58:50;;;;;;;1.30;1.30;;;;;;;;;;5093708;28;20031;-66
2021/05/28 07:01:16;;;;;;;1.50;1.40;;;;;;;;;;5093875;28;20028;-66
2021/05/28 07:03:42;;;;;;;1.00;1.00;;;;;;;;;;5094235;28;20027;-65
2021/05/28 07:06:08;;;;;;;1.20;1.15;;;;;;;;;;5094443;28;20495;-65
2021/05/28 07:08:34;;;;;;;1.60;1.50;;;;;;;;;;5093749;28;20013;-65
2021/05/28 07:10:59;;;;;;;1.08;1.08;;;;;;;;;;5094195;28;20119;-65
2021/05/28 07:13:25;;;;;;;1.20;1.10;;;;;;;;;;5076301;28;20024;-66
2021/05/28 07:15:51;;;;;;;1.35;1.25;;;;;;;;;;5094555;28;20024;-65
2021/05/28 07:18:17;;;;;;;1.58;1.50;;;;;;;;;;5094264;28;20374;-53
2021/05/28 07:20:44;;;;;;;1.80;1.70;;;;;;;;;;5094363;28;20028;-53
2021/05/28 07:23:11;;;;;;;1.85;1.70;;;;;;;;;;5094331;28;20020;-53
2021/05/28 07:25:37;;;;;;;1.30;1.30;;;;;;;;;;5094010;28;20035;-52
2021/05/28 07:28:02;;;;;;;1.50;1.40;;;;;;;;;;5094160;28;20095;-53
2021/05/28 07:30:27;;;;;;;1.48;1.38;;;;;;;;;;5094023;28;20032;-53
2021/05/28 07:32:53;;;;;;;1.52;1.42;;;;;;;;;;5075797;28;20053;-53
2021/05/28 07:35:18;;;;;;;1.67;1.52;;;;;;;;;;5093926;28;20028;-52
2021/05/28 07:37:44;;;;;;;1.50;1.40;;;;;;;;;;5093934;28;20385;-53
2021/05/28 07:40:10;;;;;;;1.55;1.35;;;;;;;;;;5094045;28;20603;-53
2021/05/28 07:42:36;;;;;;;1.10;1.10;;;;;;;;;;5093819;28;20042;-57
2021/05/28 07:45:02;;;;;;;1.23;1.23;;;;;;;;;;5093267;28;20032;-58
2021/05/28 07:47:28;;;;;;;1.20;1.20;;;;;;;;;;5093722;28;20043;-57
2021/05/28 07:49:53;;;;;;;1.20;1.10;;;;;;;;;;5093265;28;20032;-58
2021/05/28 07:52:19;;;;;;;1.33;1.33;;;;;;;;;;5093701;28;20012;-58
2021/05/28 07:54:44;;;;;;;1.00;1.00;;;;;;;;;;5093553;28;20193;-57
2021/05/28 07:57:09;;;;;;;1.70;1.00;;;;;;;;;;5093489;28;20020;-57
2021/05/28 07:59:35;;;;;;;1.20;1.10;;;;;;;;;;5093469;28;20028;-56
2021/05/28 08:02:00;;;;;;;3.00;1.30;;;;;;;;;;5093482;28;20055;-61
2021/05/28 08:04:26;;;;;;;2.10;1.38;;;;;;;;;;5092877;28;20363;-61
2021/05/28 08:06:51;;;;;;;4.82;3.08;;;;;;;;;;5093058;28;20061;-61
2021/05/28 08:09:17;;;;;;;1.80;1.60;;;;;;;;;;5075359;28;20028;-62
2021/05/28 08:11:42;;;;;;;1.42;1.30;;;;;;;;;;5093367;28;20008;-61
2021/05/28 08:14:08;;;;;;;6.05;3.22;;;;;;;;;;5093308;28;20521;-60
2021/05/28 08:16:35;;;;;;;9.93;3.20;;;;;;;;;;5093281;28;20016;-61
2021/05/28 08:19:00;;;;;;;1.00;0.88;;;;;;;;;;5093209;28;20032;-60
2021/05/28 08:21:26;;;;;;;1.10;1.10;;;;;;;;;;5075038;28;20066;-60
2021/05/28 08:23:51;;;;;;;6.70;3.40;;;;;;;;;;5093003;28;20047;-60
2021/05/28 08:26:17;;;;;;;1.27;1.20;;;;;;;;;;5093131;28;20382;-60
2021/05/28 08:28:43;;;;;;;9.23;3.85;;;;;;;;;;5093284;28;20077;-60
2021/05/28 08:31:08;;;;;;;7.25;3.22;;;;;;;;;;5093281;28;20104;-60
2021/05/28 08:33:34;;;;;;;23.15;7.80;;;;;;;;;;5093434;28;20462;-59
2021/05/28 08:36:00;;;;;;;17.23;6.20;;;;;;;;;;5093432;28;20073;-61
2021/05/28 08:38:26;;;;;;;1.63;1.45;;;;;;;;;;5092838;28;20028;-61
2021/05/28 08:40:51;;;;;;;4.07;1.30;;;;;;;;;;5093062;28;20039;-60
2021/05/28 08:43:17;;;;;;;3.58;1.10;;;;;;;;;;5093133;28;20037;-60
2021/05/28 08:45:43;;;;;;;2.30;1.55;;;;;;;;;;5092890;28;20581;-60
2021/05/28 08:48:10;;;;;;;1.58;1.48;;;;;;;;;;5075298;28;20486;-60
2021/05/28 08:50:36;;;;;;;6.85;3.13;;;;;;;;;;5092874;28;20024;-60
2021/05/28 08:53:02;;;;;;;4.22;3.00;;;;;;;;;;5093005;28;20071;-60
2021/05/28 08:55:28;;;;;;;4.43;2.25;;;;;;;;;;5092554;28;20016;-60
2021/05/28 08:57:54;;;;;;;0.82;0.82;;;;;;;;;;5092854;28;20032;-60
2021/05/28 09:00:19;;;;;;;1.58;1.17;;;;;;;;;;5093240;28;20024;-60
2021/05/28 09:02:45;;;;;;;2.97;1.20;;;;;;;;;;5093253;28;20099;-60
2021/05/28 09:05:11;;;;;;;1.73;1.63;;;;;;;;;;5074119;28;20030;-60
2021/05/28 09:07:37;;;;;;;1.58;1.48;;;;;;;;;;5090993;28;20028;-61
2021/05/28 09:10:21;;;;;;;1.42;1.20;;;;;;;;;;5092633;28;20020;-60
2021/05/28 09:12:46;;;;;;;2.05;1.58;;;;;;;;;;5093181;28;20436;-61
2021/05/28 09:15:19;;;;;;;1.45;1.35;;;;;;;;;;5092682;28;20095;-61
2021/05/28 09:17:50;;;;;;;1.33;1.10;;;;;;;;;;5092639;28;20120;-60
2021/05/28 09:20:19;;;;;;;1.00;0.95;;;;;;;;;;5074552;28;20434;-60
2021/05/28 09:22:45;;;;;;;1.45;1.35;;;;;;;;;;5093069;28;20493;-60
2021/05/28 09:25:11;;;;;;;3.13;2.80;;;;;;;;;;5093078;28;20062;-60
2021/05/28 09:27:37;;;;;;;2.05;1.95;;;;;;;;;;5092858;28;20031;-60
2021/05/28 09:30:14;;;;;;;3.08;2.78;;;;;;;;;;5092940;28;20031;-60
2021/05/28 09:32:44;;;;;;;1.02;1.02;;;;;;;;;;5094426;28;20050;-61
2021/05/28 09:35:16;;;;;;;4.15;3.25;;;;;;;;;;5096564;28;20019;-60
2021/05/28 09:37:43;;;;;;;7.50;4.80;;;;;;;;;;5096353;28;20362;-60
2021/05/28 09:40:13;;;;;;;4.13;3.53;;;;;;;;;;5096566;28;20075;-60
2021/05/28 09:42:51;;;;;;;1.10;1.10;;;;;;;;;;5096568;28;20115;-61
2021/05/28 09:45:30;;;;;;;1.08;1.02;;;;;;;;;;5096260;28;20024;-61
2021/05/28 09:47:56;;;;;;;2.13;2.03;;;;;;;;;;5078140;28;20039;-61
2021/05/28 09:50:22;;;;;;;1.10;1.00;;;;;;;;;;5096505;28;20020;-61
2021/05/28 09:52:49;;;;;;;1.63;1.00;;;;;;;;;;5096319;28;20078;-61
2021/05/28 09:55:15;;;;;;;1.33;1.00;;;;;;;;;;5096294;28;20016;-61
2021/05/28 09:57:41;;;;;;;0.95;0.95;;;;;;;;;;5077997;28;20086;-60
2021/05/28 10:00:22;;;;;;;0.90;0.85;;;;;;;;;;5096136;28;20023;-61
2021/05/28 10:03:07;;;;;;;1.88;1.10;;;;;;;;;;5096138;28;20123;-61
2021/05/28 10:05:35;;;;;;;0.82;0.82;;;;;;;;;;5096275;28;20032;-61
2021/05/28 10:08:00;;;;;;;0.80;0.80;;;;;;;;;;5095922;28;20115;-61
2021/05/28 10:10:26;;;;;;;0.88;0.88;;;;;;;;;;5095902;28;20112;-60
2021/05/28 10:12:51;;;;;;;1.55;0.90;;;;;;;;;;5096068;28;20366;-60
2021/05/28 10:15:17;;;;;;;1.45;1.10;;;;;;;;;;5096060;28;20027;-60
2021/05/28 10:17:42;;;;;;;1.23;0.80;;;;;;;;;;5095911;28;20020;-61
2021/05/28 10:20:08;;;;;;;0.90;0.90;;;;;;;;;;5095933;28;20458;-61
2021/05/28 10:22:34;;;;;;;1.13;1.02;;;;;;;;;;5095919;28;20020;-61
2021/05/28 10:25:04;;;;;;;0.80;0.80;;;;;;;;;;5095616;28;20351;-61
2021/05/28 10:27:30;;;;;;;0.80;0.80;;;;;;;;;;5077567;28;20035;-61
2021/05/28 10:29:55;;;;;;;0.70;0.70;;;;;;;;;;5095283;28;20012;-61
2021/05/28 10:32:21;;;;;;;0.90;0.90;;;;;;;;;;5095682;28;20099;-61
2021/05/28 10:35:05;;;;;;;1.00;1.00;;;;;;;;;;5095824;28;20115;-61
2021/05/28 10:37:31;;;;;;;0.80;0.80;;;;;;;;;;5077502;28;20478;-61
2021/05/28 10:39:57;;;;;;;0.90;0.90;;;;;;;;;;5095277;28;20056;-61
2021/05/28 10:42:23;;;;;;;1.48;0.68;;;;;;;;;;5077457;28;20039;-61
2021/05/28 10:44:48;;;;;;;0.80;0.80;;;;;;;;;;5095197;28;20020;-61
2021/05/28 10:47:14;;;;;;;1.35;1.02;;;;;;;;;;5076754;28;20043;-61
2021/05/28 10:49:44;;;;;;;1.17;1.00;;;;;;;;;;5095111;28;20069;-61
2021/05/28 10:52:11;;;;;;;1.00;1.00;;;;;;;;;;5095026;28;20035;-60
2021/05/28 10:54:38;;;;;;;1.10;1.10;;;;;;;;;;5095206;28;20012;-59
2021/05/28 10:57:26;;;;;;;0.90;0.90;;;;;;;;;;5095123;28;20032;-60
2021/05/28 10:59:52;;;;;;;1.25;1.15;;;;;;;;;;5095025;28;20525;-59
2021/05/28 11:02:36;;;;;;;0.90;0.90;;;;;;;;;;5094978;28;20026;-59
2021/05/28 11:05:02;;;;;;;0.75;0.75;;;;;;;;;;5076968;28;20083;-59
2021/05/28 11:07:34;;;;;;;1.13;1.02;;;;;;;;;;5095153;28;20016;-59
2021/05/28 11:10:16;;;;;;;0.90;0.90;;;;;;;;;;5094706;28;20401;-61
2021/05/28 11:12:41;;;;;;;1.10;0.93;;;;;;;;;;5076699;28;20032;-61
2021/05/28 11:15:12;;;;;;;1.10;1.10;;;;;;;;;;5094561;28;20355;-59
2021/05/28 11:17:56;;;;;;;0.90;0.90;;;;;;;;;;5076689;28;20050;-60
2021/05/28 11:20:22;;;;;;;1.10;0.95;;;;;;;;;;5094618;28;20032;-59
2021/05/28 11:22:49;;;;;;;2.55;0.88;;;;;;;;;;5094360;28;20020;-60
2021/05/28 11:25:14;;;;;;;0.98;0.98;;;;;;;;;;5094250;28;20024;-60
2021/05/28 11:27:41;;;;;;;1.00;1.00;;;;;;;;;;5094318;28;20591;-60
2021/05/28 11:30:06;;;;;;;1.25;1.15;;;;;;;;;;5094774;28;20099;-60
2021/05/28 11:32:37;;;;;;;0.88;0.88;;;;;;;;;;5094527;28;20028;-60
2021/05/28 11:35:14;;;;;;;0.85;0.85;;;;;;;;;;5094339;28;20020;-60
2021/05/28 11:37:59;;;;;;;0.93;0.93;;;;;;;;;;5094306;28;20028;-60
2021/05/28 11:40:24;;;;;;;1.00;0.95;;;;;;;;;;5094112;28;20130;-60
2021/05/28 11:42:51;;;;;;;0.80;0.80;;;;;;;;;;5094477;28;20067;-62
2021/05/28 11:45:17;;;;;;;1.15;1.10;;;;;;;;;;5094175;28;20024;-62
2021/05/28 11:47:43;;;;;;;1.70;1.60;;;;;;;;;;5094064;28;20465;-62
2021/05/28 11:50:17;;;;;;;1.00;1.00;;;;;;;;;;5093887;28;20450;-65
2021/05/28 11:52:57;;;;;;;1.10;1.10;;;;;;;;;;5093990;28;20111;-63
2021/05/28 11:55:23;;;;;;;;;;;;;;;;;;5080762;28;20386;-61
2021/05/28 11:57:59;;;;;;;1.17;1.17;;;;;;;;;;5072923;28;19904;-60
2021/05/28 12:00:26;;;;;;;1.10;1.08;;;;;;;;;;5070762;28;20020;-60
2021/05/28 12:02:55;;;;;;;2.25;1.02;;;;;;;;;;5072795;28;20026;-60
2021/05/28 12:05:20;;;;;;;3.95;1.50;;;;;;;;;;5073284;28;20028;-60
2021/05/28 12:07:46;;;;;;;1.50;1.30;;;;;;;;;;5073352;28;20420;-60
2021/05/28 12:10:12;;;;;;;1.75;1.65;;;;;;;;;;5073355;28;20024;-60
2021/05/28 12:12:53;;;;;;;2.42;1.42;;;;;;;;;;5073435;28;20009;-60
2021/05/28 12:15:20;;;;;;;1.45;1.27;;;;;;;;;;5073433;28;20029;-60
2021/05/28 12:17:45;;;;;;;1.90;1.70;;;;;;;;;;5073258;28;20017;-60
2021/05/28 12:20:15;;;;;;;3.38;1.25;;;;;;;;;;5073106;28;20111;-60
2021/05/28 12:22:56;;;;;;;1.38;1.25;;;;;;;;;;5055703;28;20036;-61
2021/05/28 12:25:22;;;;;;;3.10;2.75;;;;;;;;;;5073315;28;20028;-60
2021/05/28 12:27:47;;;;;;;6.53;3.38;;;;;;;;;;5073166;28;20024;-60
2021/05/28 12:30:16;;;;;;;1.98;1.83;;;;;;;;;;5073263;28;20513;-60
2021/05/28 12:32:42;;;;;;;2.20;1.45;;;;;;;;;;5073152;28;20374;-60
2021/05/28 12:35:08;;;;;;;1.42;1.40;;;;;;;;;;5073262;28;20025;-60
2021/05/28 12:37:33;;;;;;;1.50;1.40;;;;;;;;;;5073373;28;20103;-60
2021/05/28 12:40:08;;;;;;;1.15;1.15;;;;;;;;;;5091722;28;20452;-60
2021/05/28 12:42:34;;;;;;;1.52;1.10;;;;;;;;;;5093601;28;20377;-60
2021/05/28 12:45:09;;;;;;;1.30;1.20;;;;;;;;;;5093118;28;20020;-60
2021/05/28 12:47:42;;;;;;;1.20;1.10;;;;;;;;;;5074896;28;20024;-60
2021/05/28 12:50:07;;;;;;;1.92;1.20;;;;;;;;;;5091632;28;20024;-60
2021/05/28 12:52:33;;;;;;;0.80;0.80;;;;;;;;;;5092100;28;20137;-60
2021/05/28 12:54:59;;;;;;;1.50;0.88;;;;;;;;;;5092855;28;20020;-60
2021/05/28 12:57:24;;;;;;;0.82;0.82;;;;;;;;;;5092826;28;20108;-60
2021/05/28 12:59:51;;;;;;;1.02;1.02;;;;;;;;;;5092760;28;20111;-60
2021/05/28 13:02:18;;;;;;;0.70;0.70;;;;;;;;;;5092934;28;20127;-60
2021/05/28 13:04:44;;;;;;;0.80;0.80;;;;;;;;;;5092825;28;20039;-61
2021/05/28 13:07:10;;;;;;;0.77;0.77;;;;;;;;;;5093666;28;20066;-60
2021/05/28 13:09:36;;;;;;;0.73;0.70;;;;;;;;;;5096662;28;20021;-61
2021/05/28 13:12:05;;;;;;;0.60;0.60;;;;;;;;;;5096596;28;20397;-60
2021/05/28 13:14:32;;;;;;;0.77;0.77;;;;;;;;;;5096791;28;20146;-60
2021/05/28 13:17:16;;;;;;;0.85;0.85;;;;;;;;;;5096559;28;20024;-60
2021/05/28 13:19:46;;;;;;;0.90;0.77;;;;;;;;;;5096736;28;20071;-60
2021/05/28 13:22:11;;;;;;;0.80;0.80;;;;;;;;;;5096590;28;20489;-60
2021/05/28 13:24:41;;;;;;;0.65;0.65;;;;;;;;;;5078400;28;20032;-60
2021/05/28 13:27:13;;;;;;;1.40;1.02;;;;;;;;;;5096566;28;20035;-60
2021/05/28 13:29:56;;;;;;;1.15;1.05;;;;;;;;;;5096386;28;20020;-61
2021/05/28 13:32:25;;;;;;;1.13;1.13;;;;;;;;;;5096297;28;20020;-60
2021/05/28 13:34:51;;;;;;;1.77;1.50;;;;;;;;;;5096732;28;20409;-60
2021/05/28 13:37:17;;;;;;;1.40;1.30;;;;;;;;;;5096664;28;20028;-60
2021/05/28 13:39:43;;;;;;;1.55;1.48;;;;;;;;;;5096095;28;20558;-61
2021/05/28 13:42:08;;;;;;;1.33;1.23;;;;;;;;;;5078358;28;20028;-60
2021/05/28 13:44:34;;;;;;;1.50;0.95;;;;;;;;;;5078453;28;20485;-60
2021/05/28 13:47:01;;;;;;;0.95;0.82;;;;;;;;;;5096602;28;20071;-60
2021/05/28 13:49:27;;;;;;;2.38;0.90;;;;;;;;;;5096198;28;20106;-60
2021/05/28 13:51:53;;;;;;;1.00;0.90;;;;;;;;;;5095486;28;20099;-61
2021/05/28 13:54:19;;;;;;;0.90;0.90;;;;;;;;;;5096242;28;20035;-60
2021/05/28 13:56:46;;;;;;;1.20;1.20;;;;;;;;;;5078090;28;20024;-60
2021/05/28 13:59:14;;;;;;;1.40;1.30;;;;;;;;;;5096075;28;20111;-61
2021/05/28 14:01:39;;;;;;;0.90;0.90;;;;;;;;;;5096172;28;20504;-60
2021/05/28 14:04:05;;;;;;;1.10;0.93;;;;;;;;;;5096065;28;20486;-61
2021/05/28 14:06:31;;;;;;;1.25;1.15;;;;;;;;;;5095801;28;20024;-60
2021/05/28 14:08:57;;;;;;;1.20;1.20;;;;;;;;;;5077249;28;20031;-60
2021/05/28 14:11:22;;;;;;;1.17;1.05;;;;;;;;;;5094675;28;20024;-61
2021/05/28 14:13:48;;;;;;;1.13;1.02;;;;;;;;;;5095235;28;20051;-60
2021/05/28 14:16:14;;;;;;;1.88;1.58;;;;;;;;;;5095655;28;20042;-60
2021/05/28 14:18:40;;;;;;;1.30;1.20;;;;;;;;;;5095174;28;20478;-60
2021/05/28 14:21:06;;;;;;;0.70;0.70;;;;;;;;;;5095785;28;20036;-60
2021/05/28 14:23:34;;;;;;;0.70;0.68;;;;;;;;;;5095871;28;20028;-60
2021/05/28 14:26:00;;;;;;;1.88;0.75;;;;;;;;;;5095486;28;20016;-61
2021/05/28 14:28:26;;;;;;;0.95;0.60;;;;;;;;;;5077538;28;20031;-60
2021/05/28 14:30:51;;;;;;;1.38;0.75;;;;;;;;;;5095697;28;20012;-60
2021/05/28 14:33:18;;;;;;;0.65;0.65;;;;;;;;;;5095908;28;20026;-60
2021/05/28 14:35:45;;;;;;;0.70;0.70;;;;;;;;;;5095748;28;20016;-60
2021/05/28 14:38:10;;;;;;;0.60;0.60;;;;;;;;;;5094915;28;20536;-65
2021/05/28 14:40:36;;;;;;;2.05;0.77;;;;;;;;;;5077566;28;20027;-65
2021/05/28 14:43:02;;;;;;;0.70;0.70;;;;;;;;;;5095078;28;20035;-64
2021/05/28 14:45:28;;;;;;;0.60;0.60;;;;;;;;;;5095032;28;20020;-61
2021/05/28 14:47:53;;;;;;;0.65;0.65;;;;;;;;;;5094473;28;20020;-62
2021/05/28 14:50:19;;;;;;;0.90;0.90;;;;;;;;;;5095208;28;20012;-62
2021/05/28 14:52:45;;;;;;;1.55;0.85;;;;;;;;;;5095264;28;20024;-63
2021/05/28 14:55:12;;;;;;;1.10;1.10;;;;;;;;;;5094886;28;20020;-63
2021/05/28 14:57:38;;;;;;;1.08;1.00;;;;;;;;;;5095061;28;20111;-63
2021/05/28 15:00:11;;;;;;;1.48;0.80;;;;;;;;;;5094998;28;20031;-63
2021/05/28 15:02:38;;;;;;;1.10;1.10;;;;;;;;;;5094309;28;20482;-63
2021/05/28 15:05:03;;;;;;;1.20;1.10;;;;;;;;;;5092852;28;20624;-63
2021/05/28 15:07:29;;;;;;;1.10;0.82;;;;;;;;;;5093493;28;20051;-63
2021/05/28 15:09:54;;;;;;;1.63;1.05;;;;;;;;;;5076827;28;20031;-62
2021/05/28 15:12:20;;;;;;;0.80;0.80;;;;;;;;;;5076416;28;20031;-62
2021/05/28 15:14:46;;;;;;;1.02;1.00;;;;;;;;;;5094392;28;20027;-63
2021/05/28 15:17:11;;;;;;;0.90;0.90;;;;;;;;;;5094422;28;20082;-63
2021/05/28 15:19:37;;;;;;;0.77;0.73;;;;;;;;;;5094296;28;20016;-63
2021/05/28 15:22:02;;;;;;;1.00;0.90;;;;;;;;;;5094180;28;20035;-63
2021/05/28 15:24:28;;;;;;;1.05;0.98;;;;;;;;;;5094139;28;20055;-63
2021/05/28 15:26:53;;;;;;;0.90;0.90;;;;;;;;;;5093977;28;20036;-62
2021/05/28 15:29:18;;;;;;;1.00;0.90;;;;;;;;;;5093685;28;20406;-63
2021/05/28 15:31:44;;;;;;;0.80;0.80;;;;;;;;;;5093777;28;20024;-62
2021/05/28 15:34:10;;;;;;;0.93;0.93;;;;;;;;;;5093923;28;20027;-62
2021/05/28 15:36:36;;;;;;;1.08;1.00;;;;;;;;;;5093882;28;20028;-63
2021/05/28 15:39:03;;;;;;;1.92;0.80;;;;;;;;;;5066973;28;20547;-63
2021/05/28 15:41:28;;;;;;;1.00;1.00;;;;;;;;;;5073664;28;20028;-62
2021/05/28 15:43:54;;;;;;;1.70;1.00;;;;;;;;;;5073634;28;20032;-63
2021/05/28 15:46:19;;;;;;;0.90;0.90;;;;;;;;;;5073475;28;20039;-62
2021/05/28 15:48:44;;;;;;;1.20;1.20;;;;;;;;;;5073375;28;20052;-62
2021/05/28 15:51:10;;;;;;;1.27;1.17;;;;;;;;;;5073312;28;20110;-62
2021/05/28 15:53:35;;;;;;;1.50;1.40;;;;;;;;;;5073339;28;20455;-62
2021/05/28 15:56:01;;;;;;;1.58;1.48;;;;;;;;;;5073301;28;20028;-62
2021/05/28 15:58:27;;;;;;;3.58;1.35;;;;;;;;;;5073111;28;20455;-62
2021/05/28 16:00:53;;;;;;;1.30;1.20;;;;;;;;;;5072943;28;20055;-63
2021/05/28 16:03:19;;;;;;;0.93;0.93;;;;;;;;;;5073366;28;20117;-62
2021/05/28 16:05:46;;;;;;;1.35;1.25;;;;;;;;;;5073302;28;20029;-62
2021/05/28 16:08:13;;;;;;;1.05;1.05;;;;;;;;;;5038686;28;20082;-62
2021/05/28 16:10:39;;;;;;;1.05;1.00;;;;;;;;;;5073222;28;20016;-62
2021/05/28 16:13:04;;;;;;;1.55;1.25;;;;;;;;;;5073242;28;20017;-62
2021/05/28 16:15:30;;;;;;;1.33;1.23;;;;;;;;;;5073113;28;20024;-62
2021/05/28 16:17:55;;;;;;;1.55;1.45;;;;;;;;;;5073034;28;20028;-62
2021/05/28 16:20:20;;;;;;;0.98;0.95;;;;;;;;;;5073144;28;20036;-62
2021/05/28 16:22:46;;;;;;;1.77;1.08;;;;;;;;;;5073094;28;20415;-62
2021/05/28 16:25:12;;;;;;;1.00;1.00;;;;;;;;;;5073078;28;20036;-62
2021/05/28 16:27:39;;;;;;;1.38;1.20;;;;;;;;;;5072985;28;20478;-62
2021/05/28 16:30:05;;;;;;;1.20;1.15;;;;;;;;;;5054876;28;20104;-62
2021/05/28 16:32:30;;;;;;;1.73;1.00;;;;;;;;;;5072767;28;20024;-62
2021/05/28 16:34:57;;;;;;;1.27;1.02;;;;;;;;;;5072829;28;20028;-62
2021/05/28 16:37:22;;;;;;;1.00;1.00;;;;;;;;;;5072971;28;20020;-62
2021/05/28 16:39:48;;;;;;;1.13;0.80;;;;;;;;;;5087587;28;20143;-62
2021/05/28 16:42:15;;;;;;;1.13;0.93;;;;;;;;;;5095732;28;20050;-62
2021/05/28 16:44:42;;;;;;;1.13;0.90;;;;;;;;;;5097396;28;20186;-62
2021/05/28 16:47:09;;;;;;;1.10;0.98;;;;;;;;;;5097232;28;20024;-62
2021/05/28 16:49:34;;;;;;;1.80;1.35;;;;;;;;;;5097289;28;20413;-62
2021/05/28 16:52:00;;;;;;;1.00;0.90;;;;;;;;;;5079077;28;20028;-62
2021/05/28 16:54:25;;;;;;;1.00;0.90;;;;;;;;;;5097128;28;20024;-62
2021/05/28 16:56:50;;;;;;;1.05;1.05;;;;;;;;;;5096623;28;20087;-62
2021/05/28 16:59:16;;;;;;;1.13;1.08;;;;;;;;;;5062282;28;20032;-62
2021/05/28 17:01:42;;;;;;;1.33;1.08;;;;;;;;;;5097077;28;20077;-62
2021/05/28 17:04:07;;;;;;;0.93;0.85;;;;;;;;;;5096907;28;20043;-62
2021/05/28 17:06:33;;;;;;;1.48;1.17;;;;;;;;;;5096726;28;20102;-63
2021/05/28 17:08:58;;;;;;;0.88;0.88;;;;;;;;;;5096698;28;20394;-62
2021/05/28 17:11:24;;;;;;;1.10;1.00;;;;;;;;;;5096815;28;20047;-62
2021/05/28 17:13:49;;;;;;;1.10;1.00;;;;;;;;;;5096586;28;20062;-62
2021/05/28 17:16:15;;;;;;;1.30;1.15;;;;;;;;;;5061803;28;20020;-62
2021/05/28 17:18:40;;;;;;;2.65;1.10;;;;;;;;;;5096616;28;20119;-62
2021/05/28 17:21:06;;;;;;;1.30;1.20;;;;;;;;;;5096675;28;20087;-62
2021/05/28 17:23:31;;;;;;;1.95;1.10;;;;;;;;;;5078477;28;20036;-62
2021/05/28 17:25:57;;;;;;;1.20;1.10;;;;;;;;;;5078322;28;20017;-62
2021/05/28 17:28:22;;;;;;;1.33;1.17;;;;;;;;;;5096406;28;20058;-62
2021/05/28 17:30:48;;;;;;;1.63;1.30;;;;;;;;;;5078171;28;20041;-64
2021/05/28 17:33:13;;;;;;;1.40;1.30;;;;;;;;;;5096390;28;20115;-62
2021/05/28 17:35:39;;;;;;;2.17;1.50;;;;;;;;;;5096264;28;20028;-62
2021/05/28 17:38:05;;;;;;;2.05;1.80;;;;;;;;;;5096051;28;20060;-63
2021/05/28 17:40:31;;;;;;;1.55;1.45;;;;;;;;;;5078116;28;20125;-62
2021/05/28 17:42:57;;;;;;;1.30;1.20;;;;;;;;;;5096156;28;20457;-62
2021/05/28 17:45:23;;;;;;;1.58;1.48;;;;;;;;;;5096181;28;20027;-62
2021/05/28 17:47:50;;;;;;;2.03;1.45;;;;;;;;;;5096149;28;20447;-62
2021/05/28 17:50:17;;;;;;;1.45;1.35;;;;;;;;;;5096371;28;20028;-62
2021/05/28 17:52:42;;;;;;;2.13;1.45;;;;;;;;;;5095123;28;20033;-62
2021/05/28 17:55:09;;;;;;;1.42;1.33;;;;;;;;;;5077947;28;20012;-62
2021/05/28 17:57:34;;;;;;;1.58;1.48;;;;;;;;;;5095832;28;20024;-62
2021/05/28 18:00:00;;;;;;;1.50;1.40;;;;;;;;;;5095632;28;20571;-62
2021/05/28 18:02:26;;;;;;;4.07;1.60;;;;;;;;;;5077714;28;20119;-63
2021/05/28 18:04:52;;;;;;;1.73;1.55;;;;;;;;;;5095851;28;20020;-62
2021/05/28 18:07:17;;;;;;;2.97;1.88;;;;;;;;;;5095723;28;20032;-62
2021/05/28 18:09:43;;;;;;;2.30;2.10;;;;;;;;;;5077429;28;20378;-62
2021/05/28 18:12:09;;;;;;;3.17;1.95;;;;;;;;;;5095675;28;20382;-63
2021/05/28 18:14:35;;;;;;;2.83;2.35;;;;;;;;;;5095573;28;20028;-63
2021/05/28 18:17:01;;;;;;;2.60;2.40;;;;;;;;;;5095589;28;20546;-63
2021/05/28 18:19:27;;;;;;;3.15;2.58;;;;;;;;;;5095372;28;20154;-63
2021/05/28 18:21:53;;;;;;;3.88;2.70;;;;;;;;;;5095296;28;20115;-63
2021/05/28 18:24:18;;;;;;;2.95;2.50;;;;;;;;;;5095362;28;20111;-63
2021/05/28 18:26:44;;;;;;;4.35;2.67;;;;;;;;;;5095363;28;20039;-63
2021/05/28 18:29:09;;;;;;;3.33;2.38;;;;;;;;;;5095358;28;20042;-63
2021/05/28 18:31:35;;;;;;;2.70;2.50;;;;;;;;;;5095363;28;20418;-63
2021/05/28 18:34:06;;;;;;;3.30;3.00;;;;;;;;;;5095335;28;20390;-63
2021/05/28 18:36:33;;;;;;;7.15;4.60;;;;;;;;;;5093914;28;20051;-63
2021/05/28 18:38:58;;;;;;;9.93;7.70;;;;;;;;;;5094649;28;20036;-67
2021/05/28 18:41:24;;;;;;;8.43;6.50;;;;;;;;;;5095055;28;20038;-68
2021/05/28 18:43:49;;;;;;;8.00;5.85;;;;;;;;;;5076868;28;20470;-68
2021/05/28 18:46:17;;;;;;;6.55;3.80;;;;;;;;;;5094988;28;20028;-67
2021/05/28 18:48:43;;;;;;;3.05;2.83;;;;;;;;;;5095180;28;20457;-68
2021/05/28 18:51:10;;;;;;;4.13;3.00;;;;;;;;;;5094933;28;20396;-67
2021/05/28 18:53:37;;;;;;;3.50;3.20;;;;;;;;;;5094826;28;20062;-68
2021/05/28 18:56:04;;;;;;;6.53;3.33;;;;;;;;;;5094871;28;20436;-68
2021/05/28 18:58:29;;;;;;;8.05;4.93;;;;;;;;;;5094808;28;20020;-67
2021/05/28 19:00:55;;;;;;;24.20;9.48;;;;;;;;;;5094805;28;20498;-68
2021/05/28 19:03:24;;;;;;;41.60;15.38;;;;;;;;;;5094724;28;20039;-67
2021/05/28 19:05:50;;;;;;;41.30;14.85;;;;;;;;;;5076599;28;20048;-68
2021/05/28 19:08:15;;;;;;;40.00;13.07;;;;;;;;;;5094591;28;20032;-68
2021/05/28 19:10:44;;;;;;;35.03;11.52;;;;;;;;;;5094474;28;20026;-68
2021/05/28 19:13:09;;;;;;;39.67;13.65;;;;;;;;;;5094476;28;20124;-67
2021/05/28 19:15:35;;;;;;;37.53;12.52;;;;;;;;;;5094376;28;20052;-67